Time;durP1;ratioP1;P1;durP2;ratioP2;P2;SDS_P1;SDS_P2;PMS_P1;PMS_P2;Temp;Humidity;BMP_temperature;BMP_pressure;BME280_temperature;BME280_humidity;BME280_pressure;Samples;Min_cycle;Max_cycle;Signal;HPM_P1;HPM_P2
2022/06/28 00:01:26;;;;;;;7.33;1.70;;;13.20;71.30;;;;;;5060863;28;20225;-81
2022/06/28 00:03:54;;;;;;;11.27;2.10;;;13.40;70.70;;;;;;5055859;28;20199;-79
2022/06/28 00:06:21;;;;;;;8.43;1.87;;;13.50;69.60;;;;;;5055603;28;20852;-82
2022/06/28 00:08:49;;;;;;;4.67;1.67;;;13.60;69.50;;;;;;5055769;28;20175;-76
2022/06/28 00:11:16;;;;;;;4.87;1.50;;;13.70;68.90;;;;;;5055602;28;20272;-78
2022/06/28 00:13:44;;;;;;;7.40;1.53;;;13.90;67.80;;;;;;5055816;28;20176;-78
2022/06/28 00:16:15;;;;;;;6.50;1.77;;;14.10;66.60;;;;;;5055280;28;20277;-77
2022/06/28 00:18:43;;;;;;;6.30;2.00;;;14.20;66.50;;;;;;5055180;28;20580;-77
2022/06/28 00:21:11;;;;;;;5.20;1.80;;;14.00;66.10;;;;;;5055551;28;20302;-85
2022/06/28 00:23:40;;;;;;;5.97;1.63;;;14.00;66.30;;;;;;5054088;28;20235;-77
2022/06/28 00:26:08;;;;;;;7.40;1.83;;;14.10;66.30;;;;;;5053927;28;20685;-79
2022/06/28 00:28:36;;;;;;;5.67;2.23;;;14.10;65.10;;;;;;5055692;28;20179;-74
2022/06/28 00:31:04;;;;;;;9.90;2.13;;;14.10;65.90;;;;;;5055598;28;20214;-81
2022/06/28 00:33:32;;;;;;;6.77;1.90;;;14.20;64.90;;;;;;5054990;28;20184;-76
2022/06/28 00:36:00;;;;;;;8.73;1.90;;;14.20;65.50;;;;;;5059012;28;20631;-75
2022/06/28 00:38:27;;;;;;;4.83;1.77;;;14.30;65.80;;;;;;5054821;28;20239;-76
2022/06/28 00:40:56;;;;;;;6.13;1.50;;;14.30;66.50;;;;;;5060112;28;20175;-77
2022/06/28 00:43:24;;;;;;;2.37;1.30;;;14.30;67.40;;;;;;5074908;28;20218;-79
2022/06/28 00:45:52;;;;;;;3.83;1.20;;;14.20;68.70;;;;;;5058584;28;20187;-76
2022/06/28 00:48:19;;;;;;;12.33;1.60;;;14.30;69.20;;;;;;5061498;28;20662;-81
2022/06/28 00:50:47;;;;;;;3.77;1.50;;;14.30;68.50;;;;;;5071767;28;20689;-76
2022/06/28 00:53:18;;;;;;;5.93;1.60;;;14.30;68.30;;;;;;5071927;28;20649;-75
2022/06/28 00:55:46;;;;;;;8.63;1.90;;;14.40;68.60;;;;;;5072565;28;20183;-76
2022/06/28 00:58:15;;;;;;;5.83;2.10;;;14.50;67.80;;;;;;5064818;28;20251;-75
2022/06/28 01:00:46;;;;;;;7.23;1.93;;;14.50;67.10;;;;;;5054196;28;20176;-76
2022/06/28 01:03:17;;;;;;;8.00;1.60;;;14.80;66.40;;;;;;5070258;28;20182;-76
2022/06/28 01:05:45;;;;;;;2.53;1.27;;;14.80;65.70;;;;;;5057266;28;20258;-75
2022/06/28 01:08:13;;;;;;;5.00;1.70;;;14.80;65.20;;;;;;5054267;28;20176;-74
2022/06/28 01:10:41;;;;;;;4.90;1.70;;;14.80;65.70;;;;;;5062357;28;20641;-79
2022/06/28 01:13:10;;;;;;;7.57;1.73;;;15.00;65.60;;;;;;5074563;28;20546;-75
2022/06/28 01:15:40;;;;;;;7.00;1.70;;;15.10;65.40;;;;;;5058559;28;20186;-76
2022/06/28 01:18:09;;;;;;;7.77;1.77;;;15.20;65.40;;;;;;5054864;28;20219;-74
2022/06/28 01:20:37;;;;;;;6.57;1.80;;;15.40;65.00;;;;;;5072023;28;20179;-76
2022/06/28 01:23:04;;;;;;;9.07;1.60;;;15.60;64.60;;;;;;5072736;28;20728;-76
2022/06/28 01:25:32;;;;;;;11.60;1.67;;;15.70;63.80;;;;;;5074322;28;20167;-75
2022/06/28 01:28:00;;;;;;;8.37;1.90;;;15.80;64.00;;;;;;5060120;28;20199;-74
2022/06/28 01:30:28;;;;;;;6.77;2.33;;;15.80;63.90;;;;;;5053846;28;20185;-76
2022/06/28 01:32:56;;;;;;;6.27;1.87;;;15.80;64.00;;;;;;5071104;28;20262;-75
2022/06/28 01:35:23;;;;;;;10.00;2.03;;;15.90;63.30;;;;;;5062530;28;20614;-75
2022/06/28 01:37:50;;;;;;;10.37;1.73;;;16.10;63.20;;;;;;5071087;28;20216;-74
2022/06/28 01:40:18;;;;;;;6.30;1.60;;;16.30;62.10;;;;;;5070752;28;20546;-77
2022/06/28 01:42:45;;;;;;;8.07;1.70;;;16.10;62.20;;;;;;5062160;28;20567;-76
2022/06/28 01:45:15;;;;;;;9.20;1.80;;;16.10;62.90;;;;;;5067923;28;20676;-77
2022/06/28 01:47:44;;;;;;;6.60;1.50;;;16.00;63.90;;;;;;5071988;28;20250;-83
2022/06/28 01:50:12;;;;;;;6.47;1.70;;;15.70;64.80;;;;;;5070159;28;20187;-80
2022/06/28 01:52:43;;;;;;;5.10;1.70;;;15.60;66.20;;;;;;5063431;28;20551;-82
2022/06/28 01:55:11;;;;;;;6.37;1.70;;;15.60;66.90;;;;;;5071404;28;20187;-82
2022/06/28 01:57:40;;;;;;;9.10;1.67;;;15.50;67.70;;;;;;5056285;28;20214;-87
2022/06/28 02:00:09;;;;;;;7.00;1.70;;;15.80;67.00;;;;;;5064635;28;20187;-78
2022/06/28 02:02:37;;;;;;;5.67;2.00;;;16.20;66.40;;;;;;5057331;28;20186;-83
2022/06/28 02:05:05;;;;;;;9.33;1.90;;;16.10;66.40;;;;;;5054287;28;20566;-85
2022/06/28 02:07:33;;;;;;;7.20;1.90;;;15.90;66.50;;;;;;5053836;28;20649;-85
2022/06/28 02:10:00;;;;;;;6.20;1.70;;;16.10;66.60;;;;;;5065082;28;20748;-86
2022/06/28 02:12:28;;;;;;;7.93;1.53;;;16.20;66.00;;;;;;5063968;28;20184;-77
2022/06/28 02:14:57;;;;;;;11.13;1.90;;;16.10;65.10;;;;;;5070330;28;20186;-75
2022/06/28 02:17:25;;;;;;;5.67;1.47;;;16.00;65.80;;;;;;5069583;28;20299;-80
2022/06/28 02:19:54;;;;;;;8.77;1.60;;;16.10;65.50;;;;;;5068220;28;20183;-77
2022/06/28 02:22:21;;;;;;;6.97;1.87;;;15.80;65.10;;;;;;5066587;28;20547;-76
2022/06/28 02:24:51;;;;;;;8.87;1.63;;;15.70;65.30;;;;;;5070435;28;20211;-78
2022/06/28 02:27:19;;;;;;;5.30;1.90;;;15.70;65.00;;;;;;5064831;28;20243;-77
2022/06/28 02:29:47;;;;;;;5.90;1.80;;;15.50;65.40;;;;;;5069707;28;20190;-74
2022/06/28 02:32:14;;;;;;;7.63;1.73;;;15.50;65.90;;;;;;5068435;28;20183;-75
2022/06/28 02:40:22;;;;;;;8.17;2.27;;;15.30;66.90;;;;;;5063024;28;20249;-74
2022/06/28 02:42:50;;;;;;;7.13;1.73;;;15.60;66.80;;;;;;5066894;28;20196;-77
2022/06/28 02:45:18;;;;;;;5.60;1.60;;;15.70;66.30;;;;;;5069085;28;20543;-75
2022/06/28 02:47:46;;;;;;;8.67;1.63;;;15.70;65.50;;;;;;5070859;28;20193;-78
2022/06/28 02:50:14;;;;;;;7.57;1.60;;;15.80;65.40;;;;;;5065668;28;20613;-74
2022/06/28 02:52:41;;;;;;;4.43;1.47;;;15.90;65.30;;;;;;5066295;28;20218;-76
2022/06/28 02:55:10;;;;;;;4.27;1.50;;;15.70;65.50;;;;;;5068623;28;20602;-73
2022/06/28 02:57:37;;;;;;;3.97;1.50;;;15.50;66.60;;;;;;5068603;28;20226;-75
2022/06/28 03:00:08;;;;;;;11.97;1.70;;;15.30;66.70;;;;;;5064736;28;20224;-74
2022/06/28 03:02:37;;;;;;;11.70;1.93;;;15.40;66.80;;;;;;5069934;28;20191;-77
2022/06/28 03:05:09;;;;;;;6.20;1.60;;;15.50;66.20;;;;;;5066579;28;20176;-74
2022/06/28 03:07:37;;;;;;;7.73;1.50;;;15.60;66.60;;;;;;5070154;28;20183;-74
2022/06/28 03:10:06;;;;;;;9.67;1.27;;;15.60;67.40;;;;;;5072010;28;20263;-75
2022/06/28 03:12:34;;;;;;;6.23;1.80;;;15.40;67.70;;;;;;5063488;28;20646;-75
2022/06/28 03:15:01;;;;;;;6.60;1.70;;;15.30;68.10;;;;;;5071188;28;20252;-75
2022/06/28 03:17:29;;;;;;;3.43;1.40;;;15.20;68.80;;;;;;5066442;28;20212;-84
2022/06/28 03:19:56;;;;;;;7.83;1.50;;;15.20;69.40;;;;;;5069914;28;20206;-74
2022/06/28 03:22:23;;;;;;;5.63;1.80;;;15.20;69.20;;;;;;5065065;28;20646;-76
2022/06/28 03:24:51;;;;;;;3.87;1.70;;;15.30;68.80;;;;;;5069902;28;20262;-72
2022/06/28 03:27:18;;;;;;;3.17;1.47;;;15.50;68.00;;;;;;5070874;28;20230;-73
2022/06/28 03:29:46;;;;;;;4.70;1.30;;;15.60;67.40;;;;;;5062413;28;20626;-74
2022/06/28 03:32:13;;;;;;;3.13;1.30;;;15.60;67.00;;;;;;5051437;28;20649;-74
2022/06/28 03:34:40;;;;;;;7.80;1.40;;;15.70;66.90;;;;;;5051861;28;20188;-74
2022/06/28 03:37:08;;;;;;;4.37;1.50;;;15.60;67.20;;;;;;5052143;28;20235;-77
2022/06/28 03:39:35;;;;;;;4.87;1.27;;;15.50;67.20;;;;;;5052096;28;20655;-85
2022/06/28 03:42:03;;;;;;;5.63;1.13;;;15.80;66.50;;;;;;5066759;28;20696;-79
2022/06/28 03:44:31;;;;;;;6.67;1.37;;;16.30;65.30;;;;;;5052629;28;20259;-80
2022/06/28 03:46:58;;;;;;;4.73;1.30;;;17.00;62.60;;;;;;5052214;28;20404;-79
2022/06/28 03:49:26;;;;;;;6.53;1.27;;;17.80;60.10;;;;;;5052068;28;20570;-76
2022/06/28 03:51:53;;;;;;;8.47;1.40;;;17.50;59.00;;;;;;5068530;28;20186;-79
2022/06/28 03:54:20;;;;;;;5.40;1.30;;;16.80;61.80;;;;;;5061787;28;20186;-79
2022/06/28 03:56:48;;;;;;;7.47;1.63;;;16.30;63.30;;;;;;5068402;28;20501;-73
2022/06/28 03:59:15;;;;;;;7.57;2.20;;;15.80;64.20;;;;;;5052465;28;20188;-77
2022/06/28 04:01:43;;;;;;;6.27;1.00;;;15.60;65.00;;;;;;5070079;28;20183;-77
2022/06/28 04:04:10;;;;;;;5.83;1.37;;;15.60;65.40;;;;;;5061411;28;20672;-75
2022/06/28 04:06:38;;;;;;;7.90;1.20;;;15.50;64.50;;;;;;5052553;28;20168;-78
2022/06/28 04:09:05;;;;;;;5.10;1.30;;;15.90;63.40;;;;;;5069484;28;20222;-76
2022/06/28 04:11:33;;;;;;;7.53;1.47;;;16.20;62.70;;;;;;5071071;28;20184;-76
2022/06/28 04:14:00;;;;;;;9.07;1.53;;;16.20;62.20;;;;;;5066827;28;20237;-77
2022/06/28 04:16:27;;;;;;;5.27;1.63;;;16.00;62.80;;;;;;5069359;28;20262;-77
2022/06/28 04:18:55;;;;;;;4.73;1.20;;;15.80;63.70;;;;;;5063464;28;20191;-76
2022/06/28 04:21:23;;;;;;;7.10;1.43;;;15.60;65.20;;;;;;5069625;28;20236;-77
2022/06/28 04:23:51;;;;;;;6.97;1.70;;;15.60;66.00;;;;;;5060650;28;20221;-73
2022/06/28 04:26:18;;;;;;;6.80;1.70;;;15.80;65.90;;;;;;5069548;28;20224;-77
2022/06/28 04:28:46;;;;;;;6.00;1.57;;;16.00;65.00;;;;;;5064297;28;20188;-78
2022/06/28 04:31:15;;;;;;;5.13;1.47;;;16.30;63.40;;;;;;5066077;28;20194;-78
2022/06/28 04:33:42;;;;;;;5.90;1.53;;;16.30;63.30;;;;;;5068781;28;20187;-75
2022/06/28 04:36:10;;;;;;;5.67;1.20;;;16.00;64.20;;;;;;5067694;28;20749;-79
2022/06/28 04:38:38;;;;;;;5.00;1.50;;;16.20;64.20;;;;;;5065237;28;20192;-77
2022/06/28 04:41:05;;;;;;;5.63;1.30;;;16.40;63.50;;;;;;5060019;28;20187;-74
2022/06/28 04:43:32;;;;;;;8.93;1.60;;;16.40;64.10;;;;;;5065949;28;20232;-74
2022/06/28 04:46:00;;;;;;;4.20;1.17;;;16.30;64.60;;;;;;5071046;28;20201;-74
2022/06/28 04:48:28;;;;;;;4.80;1.40;;;15.80;65.80;;;;;;5070934;28;20681;-75
2022/06/28 04:50:55;;;;;;;4.63;1.30;;;15.40;66.80;;;;;;5074515;28;20284;-76
2022/06/28 04:53:22;;;;;;;6.97;1.40;;;15.20;67.70;;;;;;5074021;28;20194;-76
2022/06/28 04:55:50;;;;;;;6.00;1.23;;;16.10;65.00;;;;;;5070098;28;20223;-74
2022/06/28 04:58:17;;;;;;;3.33;0.90;;;16.80;62.60;;;;;;5070514;28;20284;-75
2022/06/28 05:00:45;;;;;;;3.37;1.20;;;17.20;60.40;;;;;;5064125;28;20182;-75
2022/06/28 05:03:12;;;;;;;2.67;1.23;;;16.70;62.00;;;;;;5069171;28;20190;-75
2022/06/28 05:05:39;;;;;;;2.80;1.03;;;16.40;63.30;;;;;;5070105;28;20189;-75
2022/06/28 05:08:07;;;;;;;3.03;1.13;;;16.80;63.30;;;;;;5059474;28;20176;-73
2022/06/28 05:10:34;;;;;;;3.17;0.90;;;17.60;59.50;;;;;;5074941;28;20182;-79
2022/06/28 05:13:02;;;;;;;5.03;1.50;;;17.90;58.70;;;;;;5059613;28;20196;-75
2022/06/28 05:15:29;;;;;;;4.17;1.20;;;18.60;56.50;;;;;;5054896;28;20186;-74
2022/06/28 05:17:56;;;;;;;7.00;1.43;;;18.30;56.50;;;;;;5054526;28;20294;-74
2022/06/28 05:20:24;;;;;;;3.17;1.13;;;18.70;54.70;;;;;;5061449;28;20194;-79
2022/06/28 05:22:52;;;;;;;1.87;1.10;;;19.00;53.90;;;;;;5067744;28;20183;-75
2022/06/28 05:25:19;;;;;;;7.80;1.30;;;18.50;54.90;;;;;;5065206;28;20279;-77
2022/06/28 05:27:47;;;;;;;2.07;1.10;;;18.70;54.80;;;;;;5057792;28;20965;-75
2022/06/28 05:30:18;;;;;;;5.93;1.20;;;18.20;55.20;;;;;;5061983;28;20234;-78
2022/06/28 05:32:45;;;;;;;6.27;1.33;;;18.50;54.90;;;;;;5065231;28;20508;-75
2022/06/28 05:35:13;;;;;;;6.13;1.30;;;17.50;57.70;;;;;;5063601;28;20178;-75
2022/06/28 05:37:40;;;;;;;3.90;1.07;;;17.10;59.60;;;;;;5060246;28;20222;-75
2022/06/28 05:40:08;;;;;;;3.13;1.40;;;16.90;60.20;;;;;;5054223;28;20182;-76
2022/06/28 05:42:36;;;;;;;4.23;1.47;;;16.50;61.00;;;;;;5057960;28;20180;-76
2022/06/28 05:45:03;;;;;;;5.67;1.30;;;16.30;61.90;;;;;;5067101;28;20201;-75
2022/06/28 05:47:31;;;;;;;9.50;1.77;;;16.10;63.00;;;;;;5054184;28;20226;-75
2022/06/28 05:49:58;;;;;;;8.67;1.37;;;15.60;65.10;;;;;;5053993;28;20188;-76
2022/06/28 05:52:26;;;;;;;4.33;1.10;;;15.30;66.50;;;;;;5059321;28;20180;-78
2022/06/28 05:54:53;;;;;;;5.03;1.30;;;15.20;67.50;;;;;;5054233;28;20181;-76
2022/06/28 05:57:20;;;;;;;2.07;1.17;;;15.30;67.70;;;;;;5054127;28;20261;-75
2022/06/28 05:59:48;;;;;;;6.90;1.13;;;15.50;67.10;;;;;;5053845;28;20602;-75
2022/06/28 06:02:15;;;;;;;12.53;1.33;;;15.60;67.20;;;;;;5053805;28;20623;-74
2022/06/28 06:04:43;;;;;;;5.93;1.10;;;15.60;67.50;;;;;;5053756;28;20302;-74
2022/06/28 06:07:10;;;;;;;3.13;1.30;;;16.00;66.70;;;;;;5053776;28;20344;-77
2022/06/28 06:09:41;;;;;;;4.60;1.17;;;16.10;66.00;;;;;;5053839;28;20187;-75
2022/06/28 06:12:09;;;;;;;3.97;1.47;;;15.60;67.70;;;;;;5053596;28;20193;-77
2022/06/28 06:14:36;;;;;;;8.13;1.40;;;15.40;68.80;;;;;;5053516;28;20183;-74
2022/06/28 06:17:04;;;;;;;4.80;1.33;;;15.30;69.20;;;;;;5069330;28;20710;-76
2022/06/28 06:19:32;;;;;;;7.57;1.30;;;15.20;69.50;;;;;;5073285;28;20258;-75
2022/06/28 06:21:59;;;;;;;6.27;1.30;;;15.10;69.80;;;;;;5060922;28;20236;-76
2022/06/28 06:24:26;;;;;;;4.47;1.10;;;15.00;70.40;;;;;;5054731;28;20184;-76
2022/06/28 06:26:55;;;;;;;4.23;1.13;;;14.80;70.50;;;;;;5052990;28;20223;-75
2022/06/28 06:29:22;;;;;;;3.17;1.33;;;14.80;70.20;;;;;;5053717;28;20192;-77
2022/06/28 06:31:50;;;;;;;5.43;1.30;;;14.80;70.00;;;;;;5052004;28;20187;-78
2022/06/28 06:34:17;;;;;;;6.43;1.37;;;14.70;70.30;;;;;;5052232;28;20324;-83
2022/06/28 06:36:47;;;;;;;3.73;1.57;;;14.80;70.60;;;;;;5076596;28;20292;-81
2022/06/28 06:39:15;;;;;;;4.90;1.50;;;14.70;70.70;;;;;;5071394;28;20180;-83
2022/06/28 06:41:42;;;;;;;3.13;1.10;;;14.70;70.50;;;;;;5069166;28;20242;-78
2022/06/28 06:44:10;;;;;;;6.23;1.57;;;14.50;72.70;;;;;;5052985;28;20164;-76
2022/06/28 06:46:38;;;;;;;4.77;1.10;;;14.30;74.50;;;;;;5052799;28;20212;-79
2022/06/28 06:49:06;;;;;;;4.93;1.20;;;14.00;77.20;;;;;;5086075;28;20258;-79
2022/06/28 06:51:33;;;;;;;6.00;1.20;;;13.80;79.20;;;;;;5055718;28;20539;-81
2022/06/28 06:54:01;;;;;;;3.87;1.30;;;13.70;81.10;;;;;;5067617;28;20180;-80
2022/06/28 06:56:29;;;;;;;5.83;1.50;;;13.60;81.90;;;;;;5082362;28;20204;-77
2022/06/28 06:58:56;;;;;;;5.20;1.13;;;13.40;83.00;;;;;;5055956;28;20555;-77
2022/06/28 07:01:28;;;;;;;5.23;1.60;;;13.20;83.90;;;;;;5052727;28;20198;-75
2022/06/28 07:03:56;;;;;;;6.57;1.70;;;13.10;85.40;;;;;;5077248;28;20596;-76
2022/06/28 07:06:23;;;;;;;4.53;2.23;;;13.00;86.20;;;;;;5052188;28;20228;-75
2022/06/28 07:08:51;;;;;;;12.50;1.80;;;12.90;86.80;;;;;;5085410;28;20224;-76
2022/06/28 07:11:19;;;;;;;9.37;1.90;;;12.80;87.00;;;;;;5063640;28;20186;-74
2022/06/28 07:13:46;;;;;;;6.73;1.87;;;12.70;87.80;;;;;;5052895;28;20529;-77
2022/06/28 07:16:14;;;;;;;4.57;1.57;;;12.70;87.90;;;;;;5065372;28;20673;-74
2022/06/28 07:18:42;;;;;;;10.57;2.67;;;12.60;88.10;;;;;;5068423;28;20206;-74
2022/06/28 07:21:10;;;;;;;5.83;2.70;;;12.70;88.30;;;;;;5071665;28;20603;-77
2022/06/28 07:23:37;;;;;;;8.13;1.73;;;12.70;88.40;;;;;;5052364;28;20303;-74
2022/06/28 07:26:05;;;;;;;6.37;2.00;;;12.70;88.60;;;;;;5051953;28;20566;-75
2022/06/28 07:28:33;;;;;;;6.40;1.70;;;12.60;88.60;;;;;;5070819;28;20191;-76
2022/06/28 07:31:00;;;;;;;3.10;1.73;;;12.50;88.40;;;;;;5086172;28;20190;-75
2022/06/28 07:33:28;;;;;;;6.83;1.83;;;12.60;88.80;;;;;;5072041;28;20252;-74
2022/06/28 07:35:55;;;;;;;7.87;2.30;;;12.50;88.80;;;;;;5071848;28;20220;-75
2022/06/28 07:38:23;;;;;;;9.40;2.30;;;12.50;89.00;;;;;;5072062;28;20263;-73
2022/06/28 07:40:50;;;;;;;8.90;2.30;;;12.60;89.10;;;;;;5063037;28;20176;-75
2022/06/28 07:43:18;;;;;;;8.33;2.47;;;12.60;88.90;;;;;;5052380;28;20267;-75
2022/06/28 07:45:45;;;;;;;8.17;2.23;;;12.60;88.70;;;;;;5076953;28;20193;-76
2022/06/28 07:48:12;;;;;;;11.40;1.93;;;12.60;88.30;;;;;;5062028;28;20184;-75
2022/06/28 07:53:25;;;;;;;7.03;1.90;;;12.50;88.10;;;;;;5071095;28;20313;-75
2022/06/28 07:55:52;;;;;;;7.47;2.10;;;12.60;88.00;;;;;;5064974;28;20178;-75
2022/06/28 07:58:20;;;;;;;9.03;2.50;;;12.60;88.10;;;;;;5051920;28;20214;-76
2022/06/28 08:00:47;;;;;;;7.07;1.70;;;12.60;88.30;;;;;;5052078;28;20180;-75
2022/06/28 08:03:15;;;;;;;5.97;2.17;;;12.60;88.60;;;;;;5052230;28;20215;-75
2022/06/28 08:05:42;;;;;;;6.43;1.93;;;12.60;88.80;;;;;;5051675;28;20175;-75
2022/06/28 08:08:10;;;;;;;8.43;2.33;;;12.60;88.70;;;;;;5071725;28;20260;-76
2022/06/28 08:10:37;;;;;;;5.40;1.90;;;12.50;88.50;;;;;;5077907;28;20179;-76
2022/06/28 08:13:05;;;;;;;6.77;1.70;;;12.50;88.50;;;;;;5072750;28;20186;-75
2022/06/28 08:15:32;;;;;;;4.67;2.00;;;12.50;88.30;;;;;;5065332;28;20179;-75
2022/06/28 08:17:59;;;;;;;5.20;1.70;;;12.50;88.50;;;;;;5067359;28;20222;-75
2022/06/28 08:20:31;;;;;;;6.93;1.90;;;12.50;88.30;;;;;;5081275;28;20284;-75
2022/06/28 08:22:58;;;;;;;9.77;1.97;;;12.50;88.10;;;;;;5065857;28;20183;-76
2022/06/28 08:25:26;;;;;;;7.23;2.20;;;12.60;87.80;;;;;;5055152;28;20249;-77
2022/06/28 08:27:53;;;;;;;5.97;2.20;;;12.60;87.50;;;;;;5063658;28;20222;-76
2022/06/28 08:30:21;;;;;;;6.83;1.93;;;12.60;87.60;;;;;;5082209;28;20528;-76
2022/06/28 08:32:48;;;;;;;3.63;1.70;;;12.70;87.50;;;;;;5092943;28;20175;-75
2022/06/28 08:35:16;;;;;;;5.03;1.90;;;12.60;87.40;;;;;;5082399;28;20647;-76
2022/06/28 08:37:44;;;;;;;6.43;2.20;;;12.70;87.30;;;;;;5062695;28;20575;-76
2022/06/28 08:40:12;;;;;;;6.23;2.13;;;12.70;87.40;;;;;;5069537;28;20180;-76
2022/06/28 08:42:47;;;;;;;8.53;2.20;;;12.60;86.90;;;;;;5065632;28;20697;-75
2022/06/28 08:45:16;;;;;;;5.17;1.90;;;12.60;86.90;;;;;;5073797;28;20232;-76
2022/06/28 08:47:47;;;;;;;8.37;1.77;;;12.60;86.40;;;;;;5056269;28;20585;-77
2022/06/28 08:50:34;;;;;;;5.83;1.90;;;12.60;85.90;;;;;;5065505;28;20265;-76
2022/06/28 08:53:04;;;;;;;5.20;2.20;;;12.60;86.10;;;;;;5077655;28;20588;-76
2022/06/28 08:55:33;;;;;;;5.57;2.50;;;12.60;85.90;;;;;;5061702;28;20182;-77
2022/06/28 08:58:06;;;;;;;5.37;2.40;;;12.60;86.10;;;;;;5062670;28;20219;-76
2022/06/28 09:00:34;;;;;;;5.80;2.60;;;12.50;85.50;;;;;;5060616;28;20249;-77
2022/06/28 09:03:02;;;;;;;11.03;2.13;;;12.50;85.80;;;;;;5067326;28;20229;-76
2022/06/28 09:05:29;;;;;;;8.77;2.00;;;12.40;85.70;;;;;;5074139;28;20544;-78
2022/06/28 09:07:58;;;;;;;10.07;2.30;;;12.30;85.80;;;;;;5053969;28;20260;-77
2022/06/28 09:10:26;;;;;;;3.10;2.03;;;12.30;86.00;;;;;;5073391;28;20547;-77
2022/06/28 09:13:15;;;;;;;4.20;2.23;;;12.30;86.00;;;;;;5066913;28;20186;-77
2022/06/28 09:15:54;;;;;;;6.83;2.13;;;12.30;85.80;;;;;;5059579;28;20575;-76
2022/06/28 09:18:36;;;;;;;5.47;2.53;;;12.30;86.00;;;;;;5067524;28;20317;-77
2022/06/28 09:21:08;;;;;;;6.67;2.20;;;12.30;86.40;;;;;;5060578;28;20175;-76
2022/06/28 09:23:38;;;;;;;7.17;2.53;;;12.20;86.40;;;;;;5074470;28;20222;-76
2022/06/28 09:26:16;;;;;;;5.37;2.87;;;12.20;86.30;;;;;;5058512;28;20306;-77
2022/06/28 09:28:48;;;;;;;7.53;3.30;;;12.10;86.40;;;;;;5074945;28;20171;-77
2022/06/28 09:31:23;;;;;;;10.47;3.50;;;12.00;86.70;;;;;;5074188;28;20179;-76
2022/06/28 09:34:05;;;;;;;12.53;3.03;;;12.00;87.00;;;;;;5074202;28;20532;-76
2022/06/28 09:36:38;;;;;;;6.47;3.87;;;12.00;87.00;;;;;;5062740;28;20207;-76
2022/06/28 09:39:16;;;;;;;6.50;2.97;;;11.80;87.10;;;;;;5056897;28;20692;-76
2022/06/28 09:41:54;;;;;;;4.50;2.33;;;11.80;87.20;;;;;;5056219;28;20183;-77
2022/06/28 09:44:27;;;;;;;5.73;2.57;;;11.80;87.30;;;;;;5056174;28;20350;-77
2022/06/28 09:46:57;;;;;;;6.63;2.57;;;11.70;87.70;;;;;;5074365;28;20172;-77
2022/06/28 09:49:32;;;;;;;7.93;2.60;;;11.70;87.40;;;;;;5071249;28;20174;-77
2022/06/28 09:52:01;;;;;;;5.80;2.37;;;11.70;87.40;;;;;;5060789;28;20601;-76
2022/06/28 09:54:29;;;;;;;7.27;2.50;;;11.70;87.40;;;;;;5064121;28;20544;-76
2022/06/28 09:56:59;;;;;;;7.17;3.27;;;11.70;87.50;;;;;;5054273;28;20569;-77
2022/06/28 09:59:28;;;;;;;7.30;3.90;;;11.60;87.60;;;;;;5052400;28;20752;-77
2022/06/28 10:01:57;;;;;;;6.53;3.07;;;11.60;87.50;;;;;;5069577;28;20805;-77
2022/06/28 10:04:27;;;;;;;6.77;3.00;;;11.60;87.60;;;;;;5070915;28;20633;-76
2022/06/28 10:06:54;;;;;;;10.00;3.50;;;11.60;87.70;;;;;;5065167;28;20192;-77
2022/06/28 10:09:22;;;;;;;9.93;3.47;;;11.60;87.90;;;;;;5057520;28;20195;-76
2022/06/28 10:17:40;;;;;;;8.73;3.63;;;11.80;88.00;;;;;;5057406;28;20217;-77
2022/06/28 10:20:13;;;;;;;10.27;3.50;;;11.80;87.80;;;;;;5059945;28;20183;-76
2022/06/28 10:22:40;;;;;;;9.37;5.07;;;11.80;87.90;;;;;;5072969;28;20178;-76
2022/06/28 10:25:21;;;;;;;10.30;4.97;;;11.80;87.90;;;;;;5062834;28;20271;-76
2022/06/28 10:27:53;;;;;;;18.00;11.67;;;11.70;88.00;;;;;;5053467;28;20227;-76
2022/06/28 10:30:26;;;;;;;22.57;13.17;;;11.70;88.50;;;;;;5073044;28;20175;-76
2022/06/28 10:32:56;;;;;;;11.47;5.87;;;11.80;88.60;;;;;;5054558;28;20198;-76
2022/06/28 10:35:30;;;;;;;6.27;4.23;;;11.80;88.40;;;;;;5058686;28;20188;-76
2022/06/28 10:38:09;;;;;;;11.03;4.13;;;11.90;88.60;;;;;;5083811;28;20700;-76
2022/06/28 10:40:39;;;;;;;5.90;3.77;;;12.00;88.50;;;;;;5084118;28;20174;-76
2022/06/28 10:43:06;;;;;;;8.33;4.20;;;12.00;88.60;;;;;;5069534;28;20270;-76
2022/06/28 10:46:07;;;;;;;10.73;4.90;;;12.10;88.30;;;;;;5064732;28;20545;-76
2022/06/28 10:48:49;;;;;;;13.67;8.30;;;12.10;88.30;;;;;;5064223;28;20531;-76
2022/06/28 10:51:18;;;;;;;14.83;12.23;;;12.10;88.50;;;;;;5075385;28;20190;-76
2022/06/28 10:53:57;;;;;;;10.00;4.90;;;12.20;88.60;;;;;;5058102;28;20647;-77
2022/06/28 10:56:29;;;;;;;10.47;4.53;;;12.20;88.40;;;;;;5068008;28;20194;-77
2022/06/28 10:59:07;;;;;;;8.40;4.27;;;12.10;88.30;;;;;;5053084;28;20265;-77
2022/06/28 11:01:43;;;;;;;6.43;4.13;;;12.10;88.40;;;;;;5052799;28;20541;-76
2022/06/28 11:04:21;;;;;;;8.83;4.70;;;12.10;88.70;;;;;;5077904;28;20185;-77
2022/06/28 11:06:55;;;;;;;9.83;5.03;;;12.10;88.90;;;;;;5085799;28;20258;-77
2022/06/28 11:09:46;;;;;;;9.20;4.97;;;12.10;88.80;;;;;;5071399;28;20182;-76
2022/06/28 11:12:38;;;;;;;9.67;4.80;;;12.10;88.80;;;;;;5057943;28;20248;-77
2022/06/28 11:15:38;;;;;;;8.73;4.03;;;12.00;88.60;;;;;;5075139;28;20186;-76
2022/06/28 11:18:17;;;;;;;10.33;3.90;;;12.00;88.60;;;;;;5072655;28;20275;-76
2022/06/28 11:20:45;;;;;;;8.80;3.53;;;12.00;88.40;;;;;;5068676;28;20608;-76
2022/06/28 11:23:32;;;;;;;9.20;3.60;;;12.00;88.40;;;;;;5065482;28;20175;-77
2022/06/28 11:29:00;;;;;;;5.63;2.73;;;12.00;88.30;;;;;;5066270;28;20198;-76
2022/06/28 11:31:30;;;;;;;7.30;3.70;;;12.00;88.10;;;;;;5084693;28;20182;-76
2022/06/28 11:33:59;;;;;;;8.33;3.63;;;12.00;88.00;;;;;;5066867;28;20187;-76
2022/06/28 11:36:31;;;;;;;4.83;3.13;;;12.00;88.00;;;;;;5070481;28;20183;-76
2022/06/28 11:39:04;;;;;;;8.20;3.83;;;12.00;87.90;;;;;;5085374;28;20194;-76
2022/06/28 11:41:32;;;;;;;8.10;3.63;;;11.90;88.00;;;;;;5078651;28;20180;-76
2022/06/28 11:44:01;;;;;;;7.20;3.80;;;11.90;88.10;;;;;;5068445;28;20721;-76
2022/06/28 11:46:29;;;;;;;6.60;3.27;;;11.90;88.10;;;;;;5069536;28;20685;-76
2022/06/28 11:48:57;;;;;;;4.70;2.97;;;11.90;88.20;;;;;;5082450;28;20183;-76
2022/06/28 11:51:31;;;;;;;6.50;3.37;;;11.90;88.30;;;;;;5086249;28;20659;-76
2022/06/28 11:54:07;;;;;;;9.07;3.90;;;11.90;88.30;;;;;;5075986;28;20202;-76
2022/06/28 11:56:47;;;;;;;7.70;3.40;;;11.90;88.50;;;;;;5069801;28;20229;-76
2022/06/28 11:59:16;;;;;;;8.50;3.50;;;12.00;88.50;;;;;;5068926;28;20650;-76
2022/06/28 12:01:45;;;;;;;6.30;3.10;;;11.90;88.70;;;;;;5067819;28;20168;-77
2022/06/28 12:04:21;;;;;;;7.03;3.67;;;11.90;88.80;;;;;;5061433;28;20703;-76
2022/06/28 12:06:49;;;;;;;10.63;5.63;;;11.80;88.90;;;;;;5062071;28;20638;-76
2022/06/28 12:09:16;;;;;;;14.00;6.37;;;11.80;89.10;;;;;;5055798;28;20196;-76
2022/06/28 12:11:47;;;;;;;9.27;5.30;;;11.80;89.30;;;;;;5061053;28;20672;-76
2022/06/28 12:14:18;;;;;;;7.73;4.57;;;11.70;89.40;;;;;;5064992;28;20180;-77
2022/06/28 12:17:02;;;;;;;10.60;5.20;;;11.70;89.30;;;;;;5067454;28;20191;-76
2022/06/28 12:19:34;;;;;;;10.80;4.87;;;11.70;89.50;;;;;;5067769;28;20183;-76
2022/06/28 12:22:04;;;;;;;9.30;5.27;;;11.70;89.30;;;;;;5061967;28;20175;-76
2022/06/28 12:24:46;;;;;;;6.97;4.50;;;11.60;89.40;;;;;;5054560;28;20194;-75
2022/06/28 12:27:16;;;;;;;9.03;4.30;;;11.60;89.50;;;;;;5059284;28;20583;-76
2022/06/28 12:29:44;;;;;;;5.60;3.50;;;11.50;89.80;;;;;;5062779;28;20559;-76
2022/06/28 12:32:12;;;;;;;6.90;3.33;;;11.30;89.50;;;;;;5061318;28;20213;-76
2022/06/28 12:34:40;;;;;;;7.40;4.17;;;11.20;89.60;;;;;;5056812;28;20183;-76
2022/06/28 12:37:11;;;;;;;7.23;4.10;;;11.20;89.90;;;;;;5059979;28;20261;-76
2022/06/28 12:39:39;;;;;;;7.60;3.43;;;11.20;90.00;;;;;;5064618;28;20259;-75
2022/06/28 12:42:07;;;;;;;7.43;3.63;;;11.20;90.20;;;;;;5056023;28;20172;-75
2022/06/28 12:44:35;;;;;;;7.67;4.00;;;11.20;90.40;;;;;;5070749;28;20183;-75
2022/06/28 12:47:02;;;;;;;8.27;3.60;;;11.30;90.50;;;;;;5069621;28;20649;-76
2022/06/28 12:49:29;;;;;;;8.27;3.53;;;11.30;90.60;;;;;;5056031;28;20514;-75
2022/06/28 12:51:57;;;;;;;4.93;3.60;;;11.50;90.70;;;;;;5057903;28;20176;-76
2022/06/28 12:54:25;;;;;;;6.70;3.20;;;11.50;90.50;;;;;;5055295;28;20542;-76
2022/06/28 12:56:52;;;;;;;6.07;3.17;;;11.50;90.40;;;;;;5054605;28;20204;-76
2022/06/28 12:59:20;;;;;;;6.63;2.90;;;11.50;90.40;;;;;;5057025;28;20187;-76
2022/06/28 13:01:47;;;;;;;7.13;3.17;;;11.60;90.40;;;;;;5054924;28;20176;-76
2022/06/28 13:04:16;;;;;;;7.93;3.17;;;11.60;90.50;;;;;;5055128;28;20656;-76
2022/06/28 13:06:47;;;;;;;8.33;3.10;;;11.60;90.50;;;;;;5055021;28;20186;-76
2022/06/28 13:09:15;;;;;;;5.70;3.30;;;11.60;90.50;;;;;;5064069;28;20686;-76
2022/06/28 13:11:42;;;;;;;10.33;3.13;;;11.60;90.40;;;;;;5065839;28;20532;-75
2022/06/28 13:14:10;;;;;;;4.60;2.40;;;11.60;90.40;;;;;;5056112;28;20207;-76